createdAt,value
2022-11-18T00:00:01.199Z,1001.38
2022-11-18T00:01:02.066Z,1001.42
2022-11-18T00:02:01.222Z,1001.47
2022-11-18T00:03:02.054Z,1001.46
2022-11-18T00:04:01.050Z,1001.5
2022-11-18T00:05:01.879Z,1001.53
2022-11-18T00:06:04.636Z,1001.55
2022-11-18T00:07:01.209Z,1001.52
2022-11-18T00:08:01.083Z,1001.53
2022-11-18T00:09:01.120Z,1001.52
2022-11-18T00:10:01.332Z,1001.52
2022-11-18T00:11:02.092Z,1001.6
2022-11-18T00:12:01.178Z,1001.52
2022-11-18T00:13:01.099Z,1001.54
2022-11-18T00:14:01.233Z,1001.58
2022-11-18T00:15:02.064Z,1001.57
2022-11-18T00:16:01.359Z,1001.54
2022-11-18T00:17:01.981Z,1001.45
2022-11-18T00:18:01.118Z,1001.45
2022-11-18T00:19:01.321Z,1001.41
2022-11-18T00:20:01.916Z,1001.42
2022-11-18T00:21:01.171Z,1001.39
2022-11-18T00:22:01.894Z,1001.43
2022-11-18T00:23:01.975Z,1001.38
2022-11-18T00:24:01.072Z,1001.36
2022-11-18T00:25:02.430Z,1001.37
2022-11-18T00:26:02.490Z,1001.4
2022-11-18T00:27:02.121Z,1001.41
2022-11-18T00:28:01.302Z,1001.42
2022-11-18T00:29:01.155Z,1001.45
2022-11-18T00:30:01.159Z,1001.49
2022-11-18T00:31:02.045Z,1001.43
2022-11-18T00:32:01.136Z,1001.41
2022-11-18T00:33:02.071Z,1001.37
2022-11-18T00:34:01.538Z,1001.32
2022-11-18T00:35:01.148Z,1001.32
2022-11-18T00:36:01.318Z,1001.32
2022-11-18T00:37:01.061Z,1001.34
2022-11-18T00:38:01.055Z,1001.33
2022-11-18T00:39:01.062Z,1001.32
2022-11-18T00:40:01.292Z,1001.34
2022-11-18T00:41:01.572Z,1001.38
2022-11-18T00:42:01.080Z,1001.34
2022-11-18T00:43:01.106Z,1001.41
2022-11-18T00:44:05.070Z,1001.35
2022-11-18T00:45:01.099Z,1001.36
2022-11-18T00:46:02.262Z,1001.46
2022-11-18T00:47:01.277Z,1001.42
2022-11-18T00:48:01.153Z,1001.48
2022-11-18T00:49:02.568Z,1001.51
2022-11-18T00:50:01.489Z,1001.48
2022-11-18T00:51:01.397Z,1001.47
2022-11-18T00:52:01.148Z,1001.51
2022-11-18T00:53:01.194Z,1001.52
2022-11-18T00:54:01.117Z,1001.53
2022-11-18T00:55:01.100Z,1001.55
2022-11-18T00:56:01.993Z,1001.54
2022-11-18T00:57:01.203Z,1001.47
2022-11-18T00:58:01.897Z,1001.53
2022-11-18T00:59:01.111Z,1001.48
2022-11-18T01:00:01.204Z,1001.46
2022-11-18T01:01:04.491Z,1001.41
2022-11-18T01:02:01.924Z,1001.43
2022-11-18T01:03:01.964Z,1001.4
2022-11-18T01:04:01.181Z,1001.39
2022-11-18T01:05:01.133Z,1001.4
2022-11-18T01:06:00.954Z,1001.46
2022-11-18T01:07:01.510Z,1001.4
2022-11-18T01:08:01.442Z,1001.42
2022-11-18T01:09:02.119Z,1001.42
2022-11-18T01:10:01.849Z,1001.37
2022-11-18T01:11:03.655Z,1001.43
2022-11-18T01:12:01.073Z,1001.39
2022-11-18T01:13:01.076Z,1001.4
2022-11-18T01:14:01.089Z,1001.4
2022-11-18T01:15:02.122Z,1001.43
2022-11-18T01:16:05.796Z,1001.46
2022-11-18T01:17:01.407Z,1001.5
2022-11-18T01:18:01.460Z,1001.49
2022-11-18T01:19:01.553Z,1001.46
2022-11-18T01:20:01.478Z,1001.5
2022-11-18T01:21:08.320Z,1001.46
2022-11-18T01:22:01.468Z,1001.49
2022-11-18T01:23:02.589Z,1001.51
2022-11-18T01:24:01.158Z,1001.51
2022-11-18T01:25:01.952Z,1001.5
2022-11-18T01:26:11.427Z,1001.48
2022-11-18T01:27:00.896Z,1001.55
2022-11-18T01:28:00.671Z,1001.55
2022-11-18T01:29:00.475Z,1001.54
2022-11-18T01:30:00.232Z,1001.59
2022-11-18T01:31:13.186Z,1001.59
2022-11-18T01:32:23.341Z,1001.63
2022-11-18T01:33:01.204Z,1001.6
2022-11-18T01:34:01.829Z,1001.62
2022-11-18T01:35:02.017Z,1001.66
2022-11-18T01:36:16.182Z,1001.67
2022-11-18T01:37:01.503Z,1001.69
2022-11-18T01:38:01.137Z,1001.67
2022-11-18T01:39:08.721Z,1001.63
2022-11-18T01:40:01.159Z,1001.63
2022-11-18T01:41:01.957Z,1001.67
2022-11-18T01:42:02.538Z,1001.63
2022-11-18T01:43:01.224Z,1001.63
2022-11-18T01:44:01.085Z,1001.6
2022-11-18T01:45:01.559Z,1001.66
2022-11-18T01:45:59.748Z,1001.6
2022-11-18T01:47:02.250Z,1001.57
2022-11-18T01:48:02.140Z,1001.54
2022-11-18T01:49:01.128Z,1001.55
2022-11-18T01:50:01.970Z,1001.53
2022-11-18T01:51:01.143Z,1001.58
2022-11-18T01:52:01.145Z,1001.58
2022-11-18T01:53:01.127Z,1001.53
2022-11-18T01:54:02.021Z,1001.57
2022-11-18T01:55:01.365Z,1001.53
2022-11-18T01:56:01.570Z,1001.53
2022-11-18T01:57:01.340Z,1001.49
2022-11-18T01:58:01.088Z,1001.5
2022-11-18T01:59:01.065Z,1001.48
2022-11-18T02:00:01.072Z,1001.49
2022-11-18T02:01:01.806Z,1001.51
2022-11-18T02:02:01.172Z,1001.57
2022-11-18T02:03:01.148Z,1001.56
2022-11-18T02:04:01.928Z,1001.56
2022-11-18T02:05:01.119Z,1001.56
2022-11-18T02:06:01.353Z,1001.58
2022-11-18T02:07:01.183Z,1001.53
2022-11-18T02:08:02.911Z,1001.56
2022-11-18T02:09:02.943Z,1001.54
2022-11-18T02:10:01.175Z,1001.59
2022-11-18T02:11:01.139Z,1001.53
2022-11-18T02:12:01.192Z,1001.55
2022-11-18T02:13:01.196Z,1001.56
2022-11-18T02:14:02.406Z,1001.6
2022-11-18T02:15:02.030Z,1001.58
2022-11-18T02:16:02.130Z,1001.58
2022-11-18T02:17:02.135Z,1001.58
2022-11-18T02:18:01.830Z,1001.67
2022-11-18T02:19:01.090Z,1001.63
2022-11-18T02:20:01.104Z,1001.69
2022-11-18T02:21:01.928Z,1001.64
2022-11-18T02:22:01.111Z,1001.6
2022-11-18T02:23:01.250Z,1001.62
2022-11-18T02:24:01.233Z,1001.56
2022-11-18T02:25:02.036Z,1001.53
2022-11-18T02:26:01.528Z,1001.55
2022-11-18T02:27:03.187Z,1001.54
2022-11-18T02:28:01.724Z,1001.55
2022-11-18T02:29:01.236Z,1001.55
2022-11-18T02:30:02.633Z,1001.51
2022-11-18T02:31:01.517Z,1001.5
2022-11-18T02:32:01.114Z,1001.46
2022-11-18T02:33:01.527Z,1001.44
2022-11-18T02:34:01.210Z,1001.37
2022-11-18T02:35:02.286Z,1001.41
2022-11-18T02:36:02.371Z,1001.38
2022-11-18T02:37:01.098Z,1001.42
2022-11-18T02:38:02.350Z,1001.35
2022-11-18T02:39:01.116Z,1001.36
2022-11-18T02:40:01.129Z,1001.35
2022-11-18T02:41:01.132Z,1001.3
2022-11-18T02:42:01.278Z,1001.32
2022-11-18T02:43:01.207Z,1001.34
2022-11-18T02:44:01.200Z,1001.34
2022-11-18T02:45:01.993Z,1001.35
2022-11-18T02:46:01.794Z,1001.37
2022-11-18T02:47:01.046Z,1001.4
2022-11-18T02:48:01.083Z,1001.38
2022-11-18T02:49:00.904Z,1001.41
2022-11-18T02:50:00.670Z,1001.43
2022-11-18T02:51:00.441Z,1001.46
2022-11-18T02:52:00.277Z,1001.44
2022-11-18T02:53:00.213Z,1001.46
2022-11-18T02:54:00.094Z,1001.48
2022-11-18T02:54:59.805Z,1001.43
2022-11-18T02:56:01.526Z,1001.45
2022-11-18T02:57:01.944Z,1001.43
2022-11-18T02:58:01.464Z,1001.47
2022-11-18T02:59:01.168Z,1001.43
2022-11-18T03:00:01.150Z,1001.49
2022-11-18T03:01:02.599Z,1001.46
2022-11-18T03:02:02.755Z,1001.47
2022-11-18T03:03:01.116Z,1001.52
2022-11-18T03:04:02.420Z,1001.51
2022-11-18T03:05:01.079Z,1001.47
2022-11-18T03:06:01.209Z,1001.5
2022-11-18T03:07:05.276Z,1001.51
2022-11-18T03:08:01.271Z,1001.56
2022-11-18T03:09:01.546Z,1001.54
2022-11-18T03:10:01.522Z,1001.62
2022-11-18T03:11:01.351Z,1001.66
2022-11-18T03:12:07.907Z,1001.65
2022-11-18T03:13:01.188Z,1001.66
2022-11-18T03:14:01.986Z,1001.66
2022-11-18T03:15:00.925Z,1001.66
2022-11-18T03:16:01.147Z,1001.65
2022-11-18T03:17:10.968Z,1001.68
2022-11-18T03:18:01.530Z,1001.66
2022-11-18T03:19:01.058Z,1001.7
2022-11-18T03:20:01.078Z,1001.64
2022-11-18T03:21:01.182Z,1001.66
2022-11-18T03:22:13.673Z,1001.65
2022-11-18T03:23:02.001Z,1001.66
2022-11-18T03:24:01.290Z,1001.73
2022-11-18T03:25:01.194Z,1001.68
2022-11-18T03:26:02.639Z,1001.7
2022-11-18T03:27:16.760Z,1001.67
2022-11-18T03:28:02.361Z,1001.68
2022-11-18T03:29:01.519Z,1001.68
2022-11-18T03:30:01.326Z,1001.7
2022-11-18T03:31:01.083Z,1001.7
2022-11-18T03:32:01.798Z,1001.7
2022-11-18T03:33:01.535Z,1001.74
2022-11-18T03:34:02.179Z,1001.73
2022-11-18T03:35:02.166Z,1001.74
2022-11-18T03:36:02.196Z,1001.74
2022-11-18T03:37:02.556Z,1001.76
2022-11-18T03:38:01.084Z,1001.76
2022-11-18T03:39:01.096Z,1001.72
2022-11-18T03:40:01.900Z,1001.76
2022-11-18T03:41:02.495Z,1001.75
2022-11-18T03:42:01.271Z,1001.79
2022-11-18T03:43:01.980Z,1001.78
2022-11-18T03:44:01.387Z,1001.85
2022-11-18T03:45:01.454Z,1001.84
2022-11-18T03:46:02.247Z,1001.85
2022-11-18T03:47:01.249Z,1001.87
2022-11-18T03:48:02.962Z,1001.91
2022-11-18T03:49:01.268Z,1001.92
2022-11-18T03:50:02.010Z,1001.87
2022-11-18T03:51:01.056Z,1001.89
2022-11-18T03:52:01.191Z,1001.85
2022-11-18T03:53:01.371Z,1001.84
2022-11-18T03:54:01.073Z,1001.87
2022-11-18T03:55:01.122Z,1001.85
2022-11-18T03:56:01.122Z,1001.83
2022-11-18T03:57:01.390Z,1001.86
2022-11-18T03:58:02.163Z,1001.9
2022-11-18T03:59:01.112Z,1001.91
2022-11-18T04:00:01.804Z,1001.93
2022-11-18T04:01:02.612Z,1001.97
2022-11-18T04:02:01.243Z,1001.96
2022-11-18T04:03:01.380Z,1001.91
2022-11-18T04:04:01.427Z,1001.87
2022-11-18T04:05:02.057Z,1001.88
2022-11-18T04:06:02.069Z,1001.84
2022-11-18T04:07:01.238Z,1001.89
2022-11-18T04:08:01.066Z,1001.85
2022-11-18T04:09:01.074Z,1001.86
2022-11-18T04:10:01.469Z,1001.85
2022-11-18T04:11:02.107Z,1001.84
2022-11-18T04:12:01.142Z,1001.86
2022-11-18T04:13:06.139Z,1001.86
2022-11-18T04:14:02.157Z,1001.86
2022-11-18T04:15:01.930Z,1001.85
2022-11-18T04:16:01.112Z,1001.83
2022-11-18T04:17:01.133Z,1001.87
2022-11-18T04:18:01.150Z,1001.86
2022-11-18T04:19:06.027Z,1001.87
2022-11-18T04:20:02.191Z,1001.91
2022-11-18T04:21:01.265Z,1001.9
2022-11-18T04:22:01.368Z,1001.88
2022-11-18T04:23:01.161Z,1001.83
2022-11-18T04:24:01.120Z,1001.85
2022-11-18T04:25:01.812Z,1001.94
2022-11-18T04:26:01.169Z,1001.89
2022-11-18T04:27:01.127Z,1001.93
2022-11-18T04:28:01.494Z,1001.84
2022-11-18T04:29:01.169Z,1001.94
2022-11-18T04:30:01.127Z,1001.89
2022-11-18T04:31:01.937Z,1001.84
2022-11-18T04:32:01.126Z,1001.86
2022-11-18T04:33:01.147Z,1001.85
2022-11-18T04:34:01.155Z,1001.86
2022-11-18T04:35:01.970Z,1001.86
2022-11-18T04:36:02.048Z,1001.9
2022-11-18T04:37:01.179Z,1001.93
2022-11-18T04:38:01.268Z,1001.89
2022-11-18T04:39:01.189Z,1001.98
2022-11-18T04:40:01.075Z,1001.92
2022-11-18T04:41:01.074Z,1001.93
2022-11-18T04:42:01.083Z,1001.95
2022-11-18T04:43:01.105Z,1001.94
2022-11-18T04:44:01.085Z,1001.96
2022-11-18T04:45:01.095Z,1001.99
2022-11-18T04:46:01.065Z,1001.97
2022-11-18T04:47:01.215Z,1001.94
2022-11-18T04:48:03.694Z,1001.97
2022-11-18T04:49:02.214Z,1002
2022-11-18T04:50:02.565Z,1001.93
2022-11-18T04:51:02.610Z,1002.01
2022-11-18T04:52:02.582Z,1002.07
2022-11-18T04:53:05.823Z,1002.09
2022-11-18T04:54:01.436Z,1002.07
2022-11-18T04:55:01.479Z,1002.09
2022-11-18T04:56:02.656Z,1002.13
2022-11-18T04:57:01.145Z,1002.14
2022-11-18T04:58:09.295Z,1002.13
2022-11-18T04:59:01.296Z,1002.17
2022-11-18T05:00:02.092Z,1002.18
2022-11-18T05:01:01.411Z,1002.19
2022-11-18T05:02:01.251Z,1002.23
2022-11-18T05:03:09.860Z,1002.2
2022-11-18T05:04:01.568Z,1002.2
2022-11-18T05:05:01.152Z,1002.27
2022-11-18T05:06:02.143Z,1002.28
2022-11-18T05:07:01.257Z,1002.22
2022-11-18T05:08:11.763Z,1002.28
2022-11-18T05:09:01.074Z,1002.26
2022-11-18T05:10:00.838Z,1002.25
2022-11-18T05:11:01.466Z,1002.28
2022-11-18T05:12:02.205Z,1002.3
2022-11-18T05:13:14.546Z,1002.37
2022-11-18T05:14:01.079Z,1002.38
2022-11-18T05:15:01.200Z,1002.41
2022-11-18T05:16:01.497Z,1002.36
2022-11-18T05:17:01.567Z,1002.41
2022-11-18T05:18:16.793Z,1002.44
2022-11-18T05:19:01.607Z,1002.45
2022-11-18T05:20:01.525Z,1002.45
2022-11-18T05:21:01.365Z,1002.49
2022-11-18T05:22:01.131Z,1002.46
2022-11-18T05:23:01.128Z,1002.43
2022-11-18T05:24:01.340Z,1002.46
2022-11-18T05:25:01.475Z,1002.5
2022-11-18T05:26:02.578Z,1002.48
2022-11-18T05:27:01.308Z,1002.49
2022-11-18T05:28:01.167Z,1002.54
2022-11-18T05:29:01.118Z,1002.53
2022-11-18T05:30:01.056Z,1002.55
2022-11-18T05:31:01.912Z,1002.53
2022-11-18T05:32:02.966Z,1002.58
2022-11-18T05:33:01.996Z,1002.61
2022-11-18T05:34:01.094Z,1002.58
2022-11-18T05:35:00.899Z,1002.58
2022-11-18T05:36:01.105Z,1002.63
2022-11-18T05:37:01.183Z,1002.73
2022-11-18T05:38:01.438Z,1002.72
2022-11-18T05:39:01.241Z,1002.72
2022-11-18T05:40:01.145Z,1002.72
2022-11-18T05:41:01.145Z,1002.71
2022-11-18T05:42:01.252Z,1002.69
2022-11-18T05:43:02.844Z,1002.72
2022-11-18T05:44:01.102Z,1002.8
2022-11-18T05:45:02.012Z,1002.76
2022-11-18T05:46:01.091Z,1002.8
2022-11-18T05:47:01.085Z,1002.78
2022-11-18T05:48:01.744Z,1002.81
2022-11-18T05:49:01.550Z,1002.84
2022-11-18T05:50:00.700Z,1002.86
2022-11-18T05:51:01.153Z,1002.84
2022-11-18T05:52:01.135Z,1002.88
2022-11-18T05:53:02.137Z,1002.92
2022-11-18T05:54:01.848Z,1002.93
2022-11-18T05:55:01.165Z,1002.94
2022-11-18T05:56:01.171Z,1002.92
2022-11-18T05:57:01.144Z,1002.89
2022-11-18T05:58:01.164Z,1002.93
2022-11-18T05:59:01.542Z,1002.96
2022-11-18T06:00:01.539Z,1002.95
2022-11-18T06:01:02.140Z,1002.9
2022-11-18T06:02:01.100Z,1002.97
2022-11-18T06:03:01.081Z,1002.93
2022-11-18T06:04:01.113Z,1003.01
2022-11-18T06:05:01.956Z,1003
2022-11-18T06:06:01.775Z,1002.95
2022-11-18T06:07:01.175Z,1002.99
2022-11-18T06:08:01.931Z,1003.08
2022-11-18T06:09:01.955Z,1003
2022-11-18T06:10:05.825Z,1003.06
2022-11-18T06:11:01.218Z,1003.1
2022-11-18T06:12:01.135Z,1003.07
2022-11-18T06:13:02.085Z,1003.13
2022-11-18T06:14:02.652Z,1003.11
2022-11-18T06:15:00.997Z,1003.13
2022-11-18T06:16:15.283Z,1003.11
2022-11-18T06:17:04.147Z,1003.09
2022-11-18T06:18:01.758Z,1003.13
2022-11-18T06:19:01.091Z,1003.11
2022-11-18T06:20:01.141Z,1003.11
2022-11-18T06:21:01.927Z,1003.05
2022-11-18T06:22:01.618Z,1003.07
2022-11-18T06:23:00.801Z,1003.05
2022-11-18T06:24:01.179Z,1003.02
2022-11-18T06:25:02.153Z,1003.03
2022-11-18T06:26:10.082Z,1003.01
2022-11-18T06:27:01.553Z,1003.02
2022-11-18T06:28:01.071Z,1003.03
2022-11-18T06:29:01.151Z,1003.15
2022-11-18T06:30:01.148Z,1003.09
2022-11-18T06:31:01.168Z,1003.1
2022-11-18T06:32:01.171Z,1003.1
2022-11-18T06:33:02.315Z,1003.16
2022-11-18T06:34:01.790Z,1003.19
2022-11-18T06:35:01.175Z,1003.16
2022-11-18T06:36:01.152Z,1003.17
2022-11-18T06:37:01.114Z,1003.18
2022-11-18T06:38:02.976Z,1003.2
2022-11-18T06:39:01.129Z,1003.25
2022-11-18T06:40:02.207Z,1003.28
2022-11-18T06:41:01.660Z,1003.31
2022-11-18T06:42:02.158Z,1003.35
2022-11-18T06:43:02.152Z,1003.35
2022-11-18T06:44:02.643Z,1003.35
2022-11-18T06:45:08.034Z,1003.38
2022-11-18T06:46:06.112Z,1003.44
2022-11-18T06:47:01.162Z,1003.44
2022-11-18T06:48:01.804Z,1003.5
2022-11-18T06:49:05.167Z,1003.5
2022-11-18T06:50:00.758Z,1003.47
2022-11-18T06:51:00.446Z,1003.58
2022-11-18T06:52:00.280Z,1003.56
2022-11-18T06:52:59.944Z,1003.61
2022-11-18T06:54:10.397Z,1003.62
2022-11-18T06:55:01.226Z,1003.59
2022-11-18T06:56:01.105Z,1003.57
2022-11-18T06:57:01.124Z,1003.61
2022-11-18T06:58:01.148Z,1003.68
2022-11-18T06:59:08.472Z,1003.65
2022-11-18T07:00:02.547Z,1003.64
2022-11-18T07:01:01.194Z,1003.7
2022-11-18T07:02:01.292Z,1003.68
2022-11-18T07:03:08.327Z,1003.68
2022-11-18T07:04:10.786Z,1003.76
2022-11-18T07:05:01.536Z,1003.77
2022-11-18T07:06:01.164Z,1003.77
2022-11-18T07:07:01.152Z,1003.75
2022-11-18T07:08:01.091Z,1003.72
2022-11-18T07:09:14.200Z,1003.75
2022-11-18T07:10:01.079Z,1003.75
2022-11-18T07:11:01.048Z,1003.83
2022-11-18T07:12:01.108Z,1003.75
2022-11-18T07:13:01.118Z,1003.74
2022-11-18T07:14:16.388Z,1003.72
2022-11-18T07:15:02.061Z,1003.72
2022-11-18T07:16:02.127Z,1003.74
2022-11-18T07:17:01.122Z,1003.73
2022-11-18T07:18:01.204Z,1003.69
2022-11-18T07:19:01.136Z,1003.78
2022-11-18T07:20:01.814Z,1003.8
2022-11-18T07:21:01.054Z,1003.81
2022-11-18T07:22:00.738Z,1003.78
2022-11-18T07:23:00.587Z,1003.86
2022-11-18T07:24:00.236Z,1003.8
2022-11-18T07:24:59.839Z,1003.82
2022-11-18T07:26:02.211Z,1003.88
2022-11-18T07:27:00.579Z,1003.87
2022-11-18T07:28:00.468Z,1003.88
2022-11-18T07:29:00.242Z,1003.83
2022-11-18T07:29:59.891Z,1003.88
2022-11-18T07:30:59.674Z,1003.87
2022-11-18T07:32:01.494Z,1003.76
2022-11-18T07:33:02.130Z,1003.9
2022-11-18T07:34:01.197Z,1003.84
2022-11-18T07:35:01.234Z,1003.9
2022-11-18T07:36:01.143Z,1003.87
2022-11-18T07:37:01.147Z,1003.91
2022-11-18T07:38:01.404Z,1003.98
2022-11-18T07:39:01.090Z,1003.92
2022-11-18T07:40:01.103Z,1004.02
2022-11-18T07:41:01.074Z,1004.02
2022-11-18T07:42:00.655Z,1004.01
2022-11-18T07:43:00.267Z,1004.01
2022-11-18T07:44:01.157Z,1004.04
2022-11-18T07:45:01.120Z,1004.02
2022-11-18T07:46:01.099Z,1004.01
2022-11-18T07:47:01.479Z,1004.08
2022-11-18T07:48:01.499Z,1004.08
2022-11-18T07:49:02.138Z,1004.02
2022-11-18T07:50:01.133Z,1004.02
2022-11-18T07:51:01.133Z,1004.05
2022-11-18T07:52:01.137Z,1004.06
2022-11-18T07:53:01.201Z,1004.05
2022-11-18T07:54:01.154Z,1004.12
2022-11-18T07:55:01.449Z,1004.2
2022-11-18T07:56:01.053Z,1004.11
2022-11-18T07:57:01.067Z,1004.15
2022-11-18T07:58:01.089Z,1004.15
2022-11-18T07:59:01.078Z,1004.19
2022-11-18T08:00:01.109Z,1004.19
2022-11-18T08:01:01.884Z,1004.2
2022-11-18T08:02:00.712Z,1004.13
2022-11-18T08:03:00.614Z,1004.16
2022-11-18T08:04:00.292Z,1004.18
2022-11-18T08:04:59.958Z,1004.17
2022-11-18T08:05:59.683Z,1004.15
2022-11-18T08:07:01.432Z,1004.19
2022-11-18T08:08:01.257Z,1004.16
2022-11-18T08:09:01.200Z,1004.18
2022-11-18T08:10:01.330Z,1004.22
2022-11-18T08:11:01.166Z,1004.24
2022-11-18T08:12:01.456Z,1004.24
2022-11-18T08:13:01.190Z,1004.23
2022-11-18T08:14:01.086Z,1004.25
2022-11-18T08:15:01.102Z,1004.28
2022-11-18T08:16:01.419Z,1004.25
2022-11-18T08:17:01.067Z,1004.29
2022-11-18T08:18:01.116Z,1004.28
2022-11-18T08:19:01.189Z,1004.27
2022-11-18T08:20:01.516Z,1004.29
2022-11-18T08:21:01.504Z,1004.32
2022-11-18T08:22:00.761Z,1004.3
2022-11-18T08:23:00.411Z,1004.23
2022-11-18T08:24:00.104Z,1004.28
2022-11-18T08:24:59.898Z,1004.24
2022-11-18T08:25:59.496Z,1004.26
2022-11-18T08:27:01.148Z,1004.25
2022-11-18T08:28:01.175Z,1004.29
2022-11-18T08:29:01.230Z,1004.34
2022-11-18T08:30:01.736Z,1004.33
2022-11-18T08:31:01.084Z,1004.34
2022-11-18T08:32:01.078Z,1004.34
2022-11-18T08:33:01.092Z,1004.33
2022-11-18T08:34:01.120Z,1004.4
2022-11-18T08:35:10.891Z,1004.38
2022-11-18T08:36:01.439Z,1004.42
2022-11-18T08:37:01.467Z,1004.43
2022-11-18T08:38:01.536Z,1004.46
2022-11-18T08:39:02.143Z,1004.5
2022-11-18T08:40:07.706Z,1004.48
2022-11-18T08:41:01.801Z,1004.47
2022-11-18T08:42:01.092Z,1004.49
2022-11-18T08:43:01.234Z,1004.47
2022-11-18T08:44:01.152Z,1004.48
2022-11-18T08:45:10.135Z,1004.49
2022-11-18T08:46:01.884Z,1004.47
2022-11-18T08:47:01.280Z,1004.52
2022-11-18T08:48:01.480Z,1004.44
2022-11-18T08:49:01.196Z,1004.5
2022-11-18T08:50:12.828Z,1004.54
2022-11-18T08:51:01.103Z,1004.53
2022-11-18T08:52:01.263Z,1004.53
2022-11-18T08:53:01.079Z,1004.52
2022-11-18T08:54:01.727Z,1004.6
2022-11-18T08:55:15.084Z,1004.6
2022-11-18T08:56:01.335Z,1004.56
2022-11-18T08:57:00.550Z,1004.66
2022-11-18T08:58:00.100Z,1004.68
2022-11-18T08:58:59.665Z,1004.66
2022-11-18T09:00:01.243Z,1004.69
2022-11-18T09:01:01.894Z,1004.69
2022-11-18T09:02:04.006Z,1004.67
2022-11-18T09:03:01.535Z,1004.68
2022-11-18T09:04:01.092Z,1004.64
2022-11-18T09:05:01.098Z,1004.68
2022-11-18T09:06:01.477Z,1004.62
2022-11-18T09:07:01.344Z,1004.67
2022-11-18T09:08:04.031Z,1004.64
2022-11-18T09:09:06.167Z,1004.69
2022-11-18T09:10:01.308Z,1004.67
2022-11-18T09:11:02.368Z,1004.7
2022-11-18T09:12:01.136Z,1004.71
2022-11-18T09:13:24.883Z,1004.77
2022-11-18T09:15:17.193Z,1004.79
2022-11-18T09:16:01.378Z,1004.88
2022-11-18T09:17:02.263Z,1004.81
2022-11-18T09:18:01.088Z,1004.82
2022-11-18T09:19:18.222Z,1004.85
2022-11-18T09:20:01.080Z,1004.88
2022-11-18T09:21:01.090Z,1004.9
2022-11-18T09:22:01.094Z,1005.01
2022-11-18T09:23:00.913Z,1005
2022-11-18T09:24:01.495Z,1004.98
2022-11-18T09:25:01.222Z,1005.02
2022-11-18T09:26:01.131Z,1005.04
2022-11-18T09:27:01.119Z,1005.1
2022-11-18T09:28:01.137Z,1005.01
2022-11-18T09:29:01.043Z,1005.04
2022-11-18T09:30:01.139Z,1005.08
2022-11-18T09:31:01.168Z,1005.04
2022-11-18T09:32:01.561Z,1005.08
2022-11-18T09:33:01.276Z,1005.08
2022-11-18T09:34:01.070Z,1005.05
2022-11-18T09:35:01.080Z,1005.05
2022-11-18T09:36:00.785Z,1005.08
2022-11-18T09:37:00.453Z,1005.09
2022-11-18T09:38:00.131Z,1005.08
2022-11-18T09:38:59.758Z,1004.98
2022-11-18T09:40:01.770Z,1005.02
2022-11-18T09:41:01.497Z,1005.1
2022-11-18T09:42:00.283Z,1005.09
2022-11-18T09:42:59.892Z,1005.05
2022-11-18T09:43:59.584Z,1005.06
2022-11-18T09:45:01.166Z,1005.03
2022-11-18T09:46:01.145Z,1005.04
2022-11-18T09:47:01.153Z,1005.07
2022-11-18T09:48:01.460Z,1005.04
2022-11-18T09:49:01.777Z,1005.05
2022-11-18T09:50:14.873Z,1005.04
2022-11-18T09:51:01.895Z,1005.09
2022-11-18T09:52:01.184Z,1005.1
2022-11-18T09:53:01.165Z,1005.12
2022-11-18T09:54:01.498Z,1005.12
2022-11-18T09:55:01.257Z,1005.13
2022-11-18T09:56:01.903Z,1005.17
2022-11-18T09:57:01.975Z,1005.16
2022-11-18T09:58:01.248Z,1005.23
2022-11-18T09:59:01.358Z,1005.25
2022-11-18T10:00:01.225Z,1005.2
2022-11-18T10:01:02.069Z,1005.22
2022-11-18T10:02:01.907Z,1005.2
2022-11-18T10:03:01.560Z,1005.17
2022-11-18T10:04:01.178Z,1005.17
2022-11-18T10:05:01.061Z,1005.16
2022-11-18T10:06:01.172Z,1005.13
2022-11-18T10:07:01.164Z,1005.15
2022-11-18T10:08:00.774Z,1005.17
2022-11-18T10:09:00.376Z,1005.1
2022-11-18T10:10:00.061Z,1005.2
2022-11-18T10:10:59.771Z,1005.2
2022-11-18T10:12:01.974Z,1005.17
2022-11-18T10:13:01.463Z,1005.18
2022-11-18T10:14:01.325Z,1005.18
2022-11-18T10:15:01.828Z,1005.15
2022-11-18T10:16:03.235Z,1005.19
2022-11-18T10:17:01.161Z,1005.15
2022-11-18T10:18:01.169Z,1005.24
2022-11-18T10:19:01.444Z,1005.24
2022-11-18T10:20:01.174Z,1005.22
2022-11-18T10:21:05.685Z,1005.26
2022-11-18T10:22:01.327Z,1005.28
2022-11-18T10:23:01.105Z,1005.32
2022-11-18T10:24:02.120Z,1005.39
2022-11-18T10:25:00.839Z,1005.37
2022-11-18T10:26:08.188Z,1005.38
2022-11-18T10:27:01.852Z,1005.39
2022-11-18T10:28:01.121Z,1005.41
2022-11-18T10:29:01.114Z,1005.45
2022-11-18T10:30:01.141Z,1005.44
2022-11-18T10:31:10.413Z,1005.47
2022-11-18T10:32:03.832Z,1005.47
2022-11-18T10:33:02.162Z,1005.47
2022-11-18T10:34:01.258Z,1005.45
2022-11-18T10:35:02.473Z,1005.46
2022-11-18T10:36:13.187Z,1005.45
2022-11-18T10:37:01.147Z,1005.48
2022-11-18T10:38:07.808Z,1005.46
2022-11-18T10:39:01.078Z,1005.53
2022-11-18T10:40:01.075Z,1005.53
2022-11-18T10:41:16.186Z,1005.54
2022-11-18T10:42:01.474Z,1005.49
2022-11-18T10:43:00.903Z,1005.52
2022-11-18T10:44:01.093Z,1005.49
2022-11-18T10:45:01.101Z,1005.54
2022-11-18T10:46:01.188Z,1005.53
2022-11-18T10:47:01.110Z,1005.55
2022-11-18T10:48:01.259Z,1005.5
2022-11-18T10:49:01.160Z,1005.53
2022-11-18T10:50:01.137Z,1005.56
2022-11-18T10:51:01.172Z,1005.52
2022-11-18T10:52:01.284Z,1005.5
2022-11-18T10:53:01.523Z,1005.52
2022-11-18T10:54:01.543Z,1005.48
2022-11-18T10:55:01.072Z,1005.52
2022-11-18T10:56:01.069Z,1005.46
2022-11-18T10:57:01.038Z,1005.49
2022-11-18T10:58:01.322Z,1005.49
2022-11-18T10:59:01.066Z,1005.45
2022-11-18T11:00:01.202Z,1005.53
2022-11-18T11:01:01.198Z,1005.51
2022-11-18T11:02:05.375Z,1005.56
2022-11-18T11:03:01.011Z,1005.51
2022-11-18T11:04:01.254Z,1005.53
2022-11-18T11:05:01.244Z,1005.51
2022-11-18T11:06:00.924Z,1005.52
2022-11-18T11:07:01.190Z,1005.47
2022-11-18T11:08:21.554Z,1005.48
2022-11-18T11:09:01.059Z,1005.49
2022-11-18T11:10:01.105Z,1005.54
2022-11-18T11:11:01.066Z,1005.53
2022-11-18T11:12:01.420Z,1005.55
2022-11-18T11:13:01.461Z,1005.58
2022-11-18T11:14:01.220Z,1005.53
2022-11-18T11:15:01.805Z,1005.58
2022-11-18T11:16:02.065Z,1005.58
2022-11-18T11:17:02.599Z,1005.62
2022-11-18T11:18:01.272Z,1005.59
2022-11-18T11:19:01.339Z,1005.62
2022-11-18T11:20:01.119Z,1005.66
2022-11-18T11:21:01.177Z,1005.67
2022-11-18T11:22:01.132Z,1005.61
2022-11-18T11:23:00.851Z,1005.62
2022-11-18T11:24:00.423Z,1005.67
2022-11-18T11:25:00.026Z,1005.66
2022-11-18T11:28:17.312Z,1005.71
2022-11-18T11:29:02.087Z,1005.67
2022-11-18T11:30:02.137Z,1005.64
2022-11-18T11:31:01.793Z,1005.63
2022-11-18T11:32:01.759Z,1005.71
2022-11-18T11:33:01.445Z,1005.73
2022-11-18T11:34:01.162Z,1005.81
2022-11-18T11:35:01.114Z,1005.71
2022-11-18T11:36:01.271Z,1005.74
2022-11-18T11:37:01.499Z,1005.71
2022-11-18T11:38:02.127Z,1005.7
2022-11-18T11:39:04.878Z,1005.78
2022-11-18T11:40:01.141Z,1005.74
2022-11-18T11:41:01.153Z,1005.76
2022-11-18T11:42:01.165Z,1005.73
2022-11-18T11:43:00.857Z,1005.76
2022-11-18T11:44:00.651Z,1005.78
2022-11-18T11:45:00.194Z,1005.8
2022-11-18T11:45:59.845Z,1005.75
2022-11-18T11:47:01.792Z,1005.73
2022-11-18T11:48:01.756Z,1005.78
2022-11-18T11:49:01.762Z,1005.74
2022-11-18T11:50:01.786Z,1005.81
2022-11-18T11:51:04.760Z,1005.77
2022-11-18T11:52:02.232Z,1005.9
2022-11-18T11:53:02.664Z,1005.84
2022-11-18T11:54:02.086Z,1005.84
2022-11-18T11:55:01.366Z,1005.85
2022-11-18T11:56:01.244Z,1005.9
2022-11-18T11:57:01.396Z,1005.9
2022-11-18T11:58:01.322Z,1005.98
2022-11-18T11:59:02.129Z,1005.9
2022-11-18T12:00:02.753Z,1005.95
2022-11-18T12:01:01.064Z,1005.93
2022-11-18T12:02:03.407Z,1005.98
2022-11-18T12:03:01.086Z,1005.96
2022-11-18T12:04:01.095Z,1005.99
2022-11-18T12:05:01.091Z,1006.01
2022-11-18T12:06:01.243Z,1005.95
2022-11-18T12:07:05.434Z,1005.98
2022-11-18T12:08:01.978Z,1006
2022-11-18T12:09:01.391Z,1005.97
2022-11-18T12:10:01.138Z,1005.96
2022-11-18T12:11:01.139Z,1006.01